createdAt,value
2019-01-24T00:00:27.293Z,33.75
2019-01-24T00:01:30.837Z,34.10
2019-01-24T00:02:34.422Z,33.13
2019-01-24T00:03:37.973Z,35.92
2019-01-24T00:04:41.518Z,34.55
2019-01-24T00:05:45.076Z,36.68
2019-01-24T00:06:48.626Z,34.40
2019-01-24T00:07:52.554Z,34.33
2019-01-24T00:08:56.071Z,33.90
2019-01-24T00:09:59.617Z,34.45
2019-01-24T00:11:03.238Z,34.92
2019-01-24T00:12:06.794Z,34.70
2019-01-24T00:13:10.334Z,35.05
2019-01-24T00:14:13.853Z,34.98
2019-01-24T00:15:17.394Z,36.28
2019-01-24T00:16:21.038Z,33.02
2019-01-24T00:17:24.594Z,33.80
2019-01-24T00:18:28.156Z,35.95
2019-01-24T00:19:31.744Z,34.35
2019-01-24T00:20:35.282Z,34.83
2019-01-24T00:21:38.905Z,35.23
2019-01-24T00:22:42.447Z,34.92
2019-01-24T00:23:45.937Z,33.95
2019-01-24T00:24:49.487Z,37.23
2019-01-24T00:25:53.074Z,36.50
2019-01-24T00:26:56.629Z,35.43
2019-01-24T00:28:00.179Z,32.80
2019-01-24T00:29:03.867Z,34.58
2019-01-24T00:30:10.630Z,28.62
2019-01-24T00:31:14.274Z,30.43
2019-01-24T00:32:17.781Z,34.10
2019-01-24T00:33:21.267Z,29.67
2019-01-24T00:34:24.810Z,31.45
2019-01-24T00:35:28.282Z,30.20
2019-01-24T00:36:31.794Z,29.72
2019-01-24T00:37:35.265Z,27.65
2019-01-24T00:38:38.818Z,29.95
2019-01-24T00:39:42.365Z,31.25
2019-01-24T00:40:45.937Z,30.17
2019-01-24T00:41:49.483Z,26.20
2019-01-24T00:42:53.030Z,30.23
2019-01-24T00:43:56.583Z,30.37
2019-01-24T00:45:00.206Z,30.25
2019-01-24T00:46:03.786Z,30.97
2019-01-24T00:47:07.402Z,30.05
2019-01-24T00:48:10.879Z,29.98
2019-01-24T00:49:14.468Z,29.25
2019-01-24T00:50:18.285Z,29.72
2019-01-24T00:51:21.759Z,30.15
2019-01-24T00:52:25.310Z,31.82
2019-01-24T00:53:28.854Z,31.85
2019-01-24T00:54:32.366Z,32.83
2019-01-24T00:55:35.921Z,30.30
2019-01-24T00:56:39.470Z,31.27
2019-01-24T00:57:43.323Z,31.48
2019-01-24T00:58:46.878Z,30.62
2019-01-24T00:59:50.350Z,31.55
2019-01-24T01:00:53.821Z,32.15
2019-01-24T01:01:57.407Z,28.40
2019-01-24T01:03:00.946Z,31.23
2019-01-24T01:04:04.567Z,32.08
2019-01-24T01:05:10.554Z,29.02
2019-01-24T01:06:14.053Z,30.23
2019-01-24T01:07:17.534Z,30.65
2019-01-24T01:08:21.083Z,30.95
2019-01-24T01:09:24.646Z,31.45
2019-01-24T01:10:28.234Z,30.05
2019-01-24T01:11:31.786Z,28.62
2019-01-24T01:12:35.445Z,29.60
2019-01-24T01:13:38.985Z,31.27
2019-01-24T01:14:42.457Z,31.95
2019-01-24T01:15:46.039Z,28.80
2019-01-24T01:16:49.577Z,29.02
2019-01-24T01:17:53.052Z,30.08
2019-01-24T01:18:56.603Z,30.17
2019-01-24T01:20:00.231Z,28.83
2019-01-24T01:21:04.071Z,29.70
2019-01-24T01:22:07.689Z,30.62
2019-01-24T01:23:11.167Z,30.80
2019-01-24T01:24:14.714Z,30.05
2019-01-24T01:25:18.325Z,31.42
2019-01-24T01:26:21.843Z,31.27
2019-01-24T01:27:25.390Z,29.00
2019-01-24T01:28:29.002Z,30.08
2019-01-24T01:29:32.474Z,27.67
2019-01-24T01:30:36.223Z,30.52
2019-01-24T01:31:39.768Z,27.73
2019-01-24T01:32:43.387Z,27.02
2019-01-24T01:33:46.930Z,29.65
2019-01-24T01:34:50.405Z,29.55
2019-01-24T01:35:53.986Z,28.20
2019-01-24T01:36:57.463Z,27.70
2019-01-24T01:38:01.092Z,28.40
2019-01-24T01:39:06.850Z,26.20
2019-01-24T01:40:18.237Z,25.70
2019-01-24T01:41:21.745Z,25.32
2019-01-24T01:42:25.266Z,28.70
2019-01-24T01:43:28.809Z,26.30
2019-01-24T01:44:32.362Z,25.77
2019-01-24T01:45:35.978Z,27.27
2019-01-24T01:46:39.450Z,26.40
2019-01-24T01:47:43.026Z,25.17
2019-01-24T01:48:46.576Z,25.15
2019-01-24T01:49:50.121Z,25.68
2019-01-24T01:50:53.696Z,27.62
2019-01-24T01:51:57.226Z,25.23
2019-01-24T01:53:01.938Z,25.65
2019-01-24T01:54:05.481Z,26.10
2019-01-24T01:55:09.117Z,26.20
2019-01-24T01:56:12.626Z,24.12
2019-01-24T01:57:16.174Z,23.57
2019-01-24T01:58:19.654Z,24.27
2019-01-24T01:59:23.237Z,23.80
2019-01-24T02:00:26.919Z,26.70
2019-01-24T02:01:30.470Z,25.52
2019-01-24T02:02:34.019Z,21.93
2019-01-24T02:03:37.599Z,26.07
2019-01-24T02:04:42.970Z,25.65
2019-01-24T02:05:46.349Z,24.32
2019-01-24T02:06:49.855Z,24.60
2019-01-24T02:07:53.402Z,25.05
2019-01-24T02:08:57.130Z,24.45
2019-01-24T02:10:00.607Z,25.75
2019-01-24T02:11:04.458Z,24.77
2019-01-24T02:12:08.012Z,22.98
2019-01-24T02:13:11.571Z,25.35
2019-01-24T02:14:15.190Z,24.40
2019-01-24T02:15:19.002Z,24.32
2019-01-24T02:16:22.509Z,23.38
2019-01-24T02:17:25.985Z,24.40
2019-01-24T02:18:29.534Z,25.62
2019-01-24T02:19:33.087Z,24.80
2019-01-24T02:20:36.715Z,25.60
2019-01-24T02:21:40.321Z,25.75
2019-01-24T02:22:43.794Z,28.32
2019-01-24T02:23:47.264Z,28.55
2019-01-24T02:24:50.809Z,26.70
2019-01-24T02:25:54.578Z,23.85
2019-01-24T02:26:58.131Z,24.60
2019-01-24T02:28:01.683Z,23.75
2019-01-24T02:29:05.297Z,24.15
2019-01-24T02:30:14.410Z,22.77
2019-01-24T02:31:18.064Z,23.15
2019-01-24T02:32:21.610Z,22.67
2019-01-24T02:33:25.082Z,23.73
2019-01-24T02:34:28.549Z,23.25
2019-01-24T02:35:32.095Z,23.50
2019-01-24T02:36:35.674Z,23.07
2019-01-24T02:37:39.151Z,24.35
2019-01-24T02:38:42.730Z,22.22
2019-01-24T02:39:46.278Z,20.17
2019-01-24T02:40:49.752Z,22.80
2019-01-24T02:41:53.298Z,22.07
2019-01-24T02:42:56.775Z,22.20
2019-01-24T02:44:00.366Z,23.07
2019-01-24T02:45:05.945Z,23.40
2019-01-24T02:46:09.422Z,22.32
2019-01-24T02:47:12.966Z,23.10
2019-01-24T02:48:16.521Z,20.55
2019-01-24T02:49:20.093Z,22.00
2019-01-24T02:50:24.108Z,23.15
2019-01-24T02:51:27.649Z,23.00
2019-01-24T02:52:31.124Z,19.07
2019-01-24T02:53:34.697Z,21.97
2019-01-24T02:54:38.250Z,22.45
2019-01-24T02:55:41.717Z,22.00
2019-01-24T02:56:45.201Z,19.50
2019-01-24T02:57:48.678Z,20.00
2019-01-24T02:58:52.190Z,22.52
2019-01-24T02:59:55.734Z,22.60
2019-01-24T03:00:59.283Z,22.35
2019-01-24T03:02:02.834Z,24.00
2019-01-24T03:03:06.378Z,21.95
2019-01-24T03:04:09.886Z,23.50
2019-01-24T03:05:19.305Z,24.32
2019-01-24T03:06:22.850Z,23.52
2019-01-24T03:07:26.396Z,21.02
2019-01-24T03:08:29.866Z,23.70
2019-01-24T03:09:33.345Z,22.27
2019-01-24T03:10:36.931Z,23.15
2019-01-24T03:11:59.821Z,21.20
2019-01-24T03:13:03.414Z,21.77
2019-01-24T03:14:06.962Z,22.30
2019-01-24T03:15:13.404Z,22.55
2019-01-24T03:16:16.902Z,22.40
2019-01-24T03:17:20.377Z,23.07
2019-01-24T03:18:23.890Z,21.50
2019-01-24T03:19:27.370Z,21.90
2019-01-24T03:20:30.956Z,21.87
2019-01-24T03:21:34.507Z,21.23
2019-01-24T03:22:38.067Z,23.18
2019-01-24T03:23:41.633Z,21.82
2019-01-24T03:24:45.106Z,21.77
2019-01-24T03:25:48.611Z,22.75
2019-01-24T03:26:52.162Z,23.27
2019-01-24T03:27:55.752Z,21.68
2019-01-24T03:28:59.310Z,20.88
2019-01-24T03:30:03.520Z,21.52
2019-01-24T03:31:07.068Z,20.75
2019-01-24T03:32:10.627Z,24.18
2019-01-24T03:33:14.212Z,22.80
2019-01-24T03:34:17.758Z,23.07
2019-01-24T03:35:23.676Z,21.87
2019-01-24T03:36:27.254Z,19.52
2019-01-24T03:37:30.802Z,20.72
2019-01-24T03:38:34.273Z,18.90
2019-01-24T03:39:37.782Z,20.40
2019-01-24T03:40:41.332Z,20.95
2019-01-24T03:41:44.877Z,19.40
2019-01-24T03:42:48.458Z,19.57
2019-01-24T03:43:52.053Z,20.27
2019-01-24T03:44:55.594Z,20.50
2019-01-24T03:45:59.103Z,19.30
2019-01-24T03:47:02.658Z,19.35
2019-01-24T03:48:06.266Z,20.10
2019-01-24T03:49:09.746Z,18.10
2019-01-24T03:50:18.458Z,19.12
2019-01-24T03:51:22.030Z,18.25
2019-01-24T03:52:25.579Z,19.73
2019-01-24T03:53:29.179Z,19.92
2019-01-24T03:54:32.732Z,19.40
2019-01-24T03:55:36.287Z,21.30
2019-01-24T03:56:40.000Z,21.23
2019-01-24T03:57:43.718Z,21.35
2019-01-24T03:58:47.313Z,19.98
2019-01-24T03:59:50.926Z,18.70
2019-01-24T04:00:54.407Z,20.92
2019-01-24T04:01:57.962Z,19.30
2019-01-24T04:03:01.506Z,18.23
2019-01-24T04:04:05.162Z,17.25
2019-01-24T04:05:11.881Z,18.35
2019-01-24T04:06:14.009Z,20.10
2019-01-24T04:07:17.606Z,19.42
2019-01-24T04:08:21.078Z,19.65
2019-01-24T04:09:24.636Z,18.55
2019-01-24T04:10:28.178Z,19.40
2019-01-24T04:11:31.646Z,18.00
2019-01-24T04:12:35.238Z,19.15
2019-01-24T04:13:38.794Z,19.62
2019-01-24T04:14:42.347Z,18.55
2019-01-24T04:15:45.894Z,17.25
2019-01-24T04:16:49.368Z,18.50
2019-01-24T04:17:53.033Z,18.52
2019-01-24T04:18:56.625Z,18.67
2019-01-24T04:20:00.242Z,19.27
2019-01-24T04:21:03.727Z,19.25
2019-01-24T04:22:07.279Z,18.65
2019-01-24T04:23:10.830Z,18.98
2019-01-24T04:24:14.426Z,17.70
2019-01-24T04:25:17.905Z,18.90
2019-01-24T04:26:21.379Z,16.62
2019-01-24T04:27:24.855Z,17.67
2019-01-24T04:28:28.406Z,18.27
2019-01-24T04:29:32.008Z,16.70
2019-01-24T04:30:35.550Z,19.12
2019-01-24T04:31:39.126Z,15.93
2019-01-24T04:32:42.606Z,18.52
2019-01-24T04:33:46.084Z,18.80
2019-01-24T04:34:49.674Z,17.77
2019-01-24T04:35:53.148Z,18.10
2019-01-24T04:36:56.690Z,18.00
2019-01-24T04:38:00.170Z,18.92
2019-01-24T04:39:05.259Z,19.42
2019-01-24T04:40:11.582Z,18.87
2019-01-24T04:41:15.066Z,20.45
2019-01-24T04:42:18.659Z,18.57
2019-01-24T04:43:22.130Z,20.08
2019-01-24T04:44:25.605Z,19.95
2019-01-24T04:45:29.154Z,18.90
2019-01-24T04:46:32.634Z,19.10
2019-01-24T04:47:36.222Z,18.73
2019-01-24T04:48:39.699Z,19.80
2019-01-24T04:49:43.243Z,20.00
2019-01-24T04:50:46.797Z,19.07
2019-01-24T04:51:50.342Z,19.77
2019-01-24T04:52:54.026Z,17.60
2019-01-24T04:53:57.592Z,17.98
2019-01-24T04:55:01.139Z,18.40
2019-01-24T04:56:05.346Z,20.15
2019-01-24T04:57:08.892Z,18.55
2019-01-24T04:58:12.487Z,19.00
2019-01-24T04:59:16.042Z,19.35
2019-01-24T05:00:28.190Z,20.72
2019-01-24T05:01:31.667Z,18.17
2019-01-24T05:02:35.217Z,19.52
2019-01-24T05:03:38.766Z,17.70
2019-01-24T05:04:42.324Z,17.75
2019-01-24T05:05:45.913Z,18.10
2019-01-24T05:06:49.386Z,18.70
2019-01-24T05:07:53.010Z,18.77
2019-01-24T05:08:56.562Z,18.20
2019-01-24T05:10:00.202Z,17.82
2019-01-24T05:11:03.714Z,18.95
2019-01-24T05:12:07.190Z,17.37
2019-01-24T05:13:10.736Z,18.05
2019-01-24T05:14:14.278Z,18.42
2019-01-24T05:15:17.900Z,18.40
2019-01-24T05:16:21.490Z,18.85
2019-01-24T05:17:25.043Z,20.60
2019-01-24T05:18:28.590Z,18.05
2019-01-24T05:19:32.145Z,19.05
2019-01-24T05:20:35.685Z,18.12
2019-01-24T05:21:39.250Z,19.52
2019-01-24T05:22:42.834Z,19.98
2019-01-24T05:23:46.382Z,18.52
2019-01-24T05:24:49.978Z,21.70
2019-01-24T05:25:53.502Z,22.00
2019-01-24T05:26:57.049Z,18.75
2019-01-24T05:28:00.611Z,20.55
2019-01-24T05:29:04.154Z,21.50
2019-01-24T05:30:10.701Z,22.85
2019-01-24T05:31:14.219Z,22.02
2019-01-24T05:32:17.745Z,20.55
2019-01-24T05:33:21.451Z,20.05
2019-01-24T05:34:25.013Z,19.70
2019-01-24T05:35:34.750Z,20.45
2019-01-24T05:36:33.743Z,21.90
2019-01-24T05:37:37.325Z,22.25
2019-01-24T05:38:40.810Z,20.80
2019-01-24T05:39:44.362Z,20.75
2019-01-24T05:40:47.966Z,22.25
2019-01-24T05:41:51.438Z,21.23
2019-01-24T05:42:54.990Z,20.40
2019-01-24T05:43:58.543Z,20.17
2019-01-24T05:45:02.100Z,21.05
2019-01-24T05:46:05.687Z,19.75
2019-01-24T05:47:09.242Z,19.82
2019-01-24T05:48:12.722Z,20.88
2019-01-24T05:49:16.312Z,20.77
2019-01-24T05:50:19.863Z,20.68
2019-01-24T05:51:23.410Z,20.15
2019-01-24T05:52:26.963Z,22.00
2019-01-24T05:53:30.567Z,20.30
2019-01-24T05:54:34.119Z,21.65
2019-01-24T05:55:37.665Z,19.73
2019-01-24T05:56:41.142Z,22.52
2019-01-24T05:57:44.618Z,20.25
2019-01-24T05:58:48.226Z,18.23
2019-01-24T05:59:51.778Z,19.77
2019-01-24T06:00:55.399Z,21.02
2019-01-24T06:01:59.213Z,20.97
2019-01-24T06:03:02.846Z,19.82
2019-01-24T06:04:06.507Z,23.55
2019-01-24T06:05:11.893Z,21.27
2019-01-24T06:06:15.365Z,19.42
2019-01-24T06:07:18.838Z,19.32
2019-01-24T06:08:22.394Z,21.60
2019-01-24T06:09:25.969Z,19.75
2019-01-24T06:10:29.513Z,20.50
2019-01-24T06:11:32.986Z,20.55
2019-01-24T06:12:36.502Z,20.35
2019-01-24T06:13:40.041Z,19.12
2019-01-24T06:14:43.518Z,19.80
2019-01-24T06:15:47.170Z,21.00
2019-01-24T06:16:50.687Z,20.82
2019-01-24T06:17:54.198Z,20.32
2019-01-24T06:18:57.755Z,19.77
2019-01-24T06:20:01.353Z,19.62
2019-01-24T06:21:04.954Z,20.10
2019-01-24T06:22:08.502Z,19.00
2019-01-24T06:23:12.094Z,19.35
2019-01-24T06:24:15.646Z,20.00
2019-01-24T06:25:19.122Z,19.32
2019-01-24T06:26:22.776Z,21.93
2019-01-24T06:27:26.322Z,19.85
2019-01-24T06:28:29.829Z,19.12
2019-01-24T06:29:33.301Z,20.60
2019-01-24T06:30:36.818Z,21.20
2019-01-24T06:31:40.374Z,22.20
2019-01-24T06:32:43.854Z,22.17
2019-01-24T06:33:47.399Z,20.88
2019-01-24T06:34:51.094Z,22.62
2019-01-24T06:35:54.565Z,19.73
2019-01-24T06:36:58.037Z,18.12
2019-01-24T06:38:01.534Z,21.87
2019-01-24T06:39:07.413Z,21.70
2019-01-24T06:40:13.835Z,22.42
2019-01-24T06:41:17.382Z,21.97
2019-01-24T06:42:20.854Z,21.02
2019-01-24T06:43:24.407Z,20.45
2019-01-24T06:44:27.999Z,20.85
2019-01-24T06:45:31.615Z,18.85
2019-01-24T06:46:35.085Z,21.65
2019-01-24T06:47:38.599Z,20.45
2019-01-24T06:48:42.154Z,19.37
2019-01-24T06:49:45.708Z,19.45
2019-01-24T06:50:49.254Z,21.00
2019-01-24T06:51:52.762Z,19.55
2019-01-24T06:52:56.234Z,20.02
2019-01-24T06:53:59.713Z,18.37
2019-01-24T06:55:03.697Z,19.73
2019-01-24T06:56:07.297Z,21.00
2019-01-24T06:57:10.878Z,19.73
2019-01-24T06:58:14.374Z,20.12
2019-01-24T06:59:17.932Z,20.08
2019-01-24T07:00:21.755Z,21.55
2019-01-24T07:01:25.298Z,19.07
2019-01-24T07:02:28.851Z,19.70
2019-01-24T07:03:32.435Z,20.10
2019-01-24T07:04:35.986Z,18.27
2019-01-24T07:05:39.601Z,19.95
2019-01-24T07:06:43.078Z,21.27
2019-01-24T07:07:46.722Z,20.02
2019-01-24T07:08:50.271Z,19.52
2019-01-24T07:09:53.826Z,18.95
2019-01-24T07:10:57.413Z,19.30
2019-01-24T07:12:00.882Z,20.62
2019-01-24T07:13:04.394Z,20.72
2019-01-24T07:14:07.867Z,18.75
2019-01-24T07:15:14.389Z,19.60
2019-01-24T07:16:17.864Z,19.25
2019-01-24T07:17:21.518Z,20.00
2019-01-24T07:18:24.986Z,19.67
2019-01-24T07:19:28.592Z,19.15
2019-01-24T07:20:32.138Z,18.12
2019-01-24T07:21:35.681Z,17.90
2019-01-24T07:22:39.155Z,19.32
2019-01-24T07:23:42.643Z,18.80
2019-01-24T07:24:46.154Z,19.55
2019-01-24T07:25:49.703Z,18.20
2019-01-24T07:26:53.250Z,18.07
2019-01-24T07:27:56.721Z,19.98
2019-01-24T07:29:00.293Z,18.15
2019-01-24T07:30:06.450Z,19.02
2019-01-24T07:31:10.004Z,18.35
2019-01-24T07:32:13.549Z,18.30
2019-01-24T07:33:17.046Z,18.35
2019-01-24T07:34:20.631Z,18.45
2019-01-24T07:35:24.222Z,19.20
2019-01-24T07:36:27.771Z,17.73
2019-01-24T07:37:31.320Z,18.75
2019-01-24T07:38:34.902Z,18.17
2019-01-24T07:39:38.378Z,18.52
2019-01-24T07:40:41.921Z,18.15
2019-01-24T07:41:45.396Z,18.42
2019-01-24T07:42:49.724Z,17.15
2019-01-24T07:43:53.269Z,18.12
2019-01-24T07:44:56.814Z,19.25
2019-01-24T07:46:00.397Z,18.17
2019-01-24T07:47:03.938Z,19.07
2019-01-24T07:48:07.473Z,18.95
2019-01-24T07:49:10.946Z,18.35
2019-01-24T07:50:14.733Z,19.20
2019-01-24T07:51:18.317Z,19.75
2019-01-24T07:52:21.789Z,19.02
2019-01-24T07:53:25.261Z,19.20
2019-01-24T07:54:28.774Z,19.15
2019-01-24T07:55:32.245Z,18.73
2019-01-24T07:56:35.722Z,20.50
2019-01-24T07:57:40.305Z,19.67
2019-01-24T07:58:43.813Z,19.35
2019-01-24T07:59:47.357Z,20.52
2019-01-24T08:00:50.825Z,19.50
2019-01-24T08:01:54.410Z,20.62
2019-01-24T08:02:57.987Z,18.17
2019-01-24T08:04:01.533Z,19.70
2019-01-24T08:05:08.285Z,20.32
2019-01-24T08:06:11.848Z,21.20
2019-01-24T08:07:15.390Z,20.95
2019-01-24T08:08:18.934Z,21.37
2019-01-24T08:09:22.486Z,20.90
2019-01-24T08:10:26.194Z,21.70
2019-01-24T08:11:29.778Z,21.20
2019-01-24T08:12:33.321Z,20.00
2019-01-24T08:13:36.825Z,21.82
2019-01-24T08:14:40.302Z,21.87
2019-01-24T08:15:43.886Z,22.67
2019-01-24T08:16:47.449Z,21.77
2019-01-24T08:17:50.997Z,23.32
2019-01-24T08:18:54.543Z,21.45
2019-01-24T08:19:58.026Z,22.50
2019-01-24T08:21:01.534Z,22.13
2019-01-24T08:22:05.074Z,20.50
2019-01-24T08:23:08.550Z,21.27
2019-01-24T08:24:12.094Z,21.62
2019-01-24T08:25:15.772Z,19.80
2019-01-24T08:26:19.281Z,21.97
2019-01-24T08:27:22.827Z,21.70
2019-01-24T08:28:26.298Z,20.35
2019-01-24T08:29:29.770Z,22.42
2019-01-24T08:30:33.589Z,22.37
2019-01-24T08:31:37.167Z,22.07
2019-01-24T08:32:40.735Z,21.68
2019-01-24T08:33:44.277Z,23.38
2019-01-24T08:34:47.754Z,23.95
2019-01-24T08:35:51.266Z,26.87
2019-01-24T08:36:54.742Z,27.93
2019-01-24T08:37:58.545Z,33.70
2019-01-24T08:39:02.094Z,27.50
2019-01-24T08:40:08.681Z,23.95
2019-01-24T08:41:12.153Z,25.20
2019-01-24T08:42:15.697Z,23.38
2019-01-24T08:43:19.176Z,23.45
2019-01-24T08:44:22.759Z,24.72
2019-01-24T08:45:26.333Z,25.75
2019-01-24T08:46:29.849Z,24.80
2019-01-24T08:47:33.322Z,25.12
2019-01-24T08:48:36.798Z,24.37
2019-01-24T08:49:40.308Z,23.60
2019-01-24T08:50:43.853Z,23.67
2019-01-24T08:51:47.331Z,24.02
2019-01-24T08:52:50.950Z,27.52
2019-01-24T08:53:54.446Z,27.93
2019-01-24T08:54:57.926Z,27.27
2019-01-24T08:56:01.502Z,28.85
2019-01-24T08:57:04.969Z,29.05
2019-01-24T08:58:08.553Z,28.52
2019-01-24T08:59:12.174Z,25.82
2019-01-24T09:00:18.254Z,26.48
2019-01-24T09:01:21.726Z,27.58
2019-01-24T09:02:25.234Z,26.23
2019-01-24T09:03:28.785Z,27.50
2019-01-24T09:04:32.330Z,28.50
2019-01-24T09:05:35.803Z,28.02
2019-01-24T09:06:39.462Z,25.80
2019-01-24T09:07:43.105Z,25.75
2019-01-24T09:08:46.677Z,28.25
2019-01-24T09:09:50.150Z,28.52
2019-01-24T09:10:53.670Z,26.30
2019-01-24T09:11:57.223Z,25.10
2019-01-24T09:13:01.038Z,26.82
2019-01-24T09:14:04.826Z,24.60
2019-01-24T09:15:11.506Z,26.73
2019-01-24T09:16:15.094Z,25.60
2019-01-24T09:17:18.602Z,27.32
2019-01-24T09:18:22.077Z,26.80
2019-01-24T09:19:25.551Z,24.85
2019-01-24T09:20:29.098Z,25.27
2019-01-24T09:21:32.607Z,25.20
2019-01-24T09:22:36.085Z,24.05
2019-01-24T09:23:39.634Z,25.60
2019-01-24T09:24:43.178Z,23.32
2019-01-24T09:25:46.686Z,24.45
2019-01-24T09:26:50.215Z,24.47
2019-01-24T09:27:53.758Z,25.80
2019-01-24T09:28:57.332Z,24.90
2019-01-24T09:30:00.928Z,23.90
2019-01-24T09:31:04.430Z,26.35
2019-01-24T09:32:08.010Z,24.50
2019-01-24T09:33:11.478Z,26.02
2019-01-24T09:34:14.989Z,26.90
2019-01-24T09:35:18.470Z,25.05
2019-01-24T09:36:22.050Z,32.63
2019-01-24T09:37:25.532Z,26.00
2019-01-24T09:38:29.077Z,26.73
2019-01-24T09:39:32.550Z,25.90
2019-01-24T09:40:36.146Z,29.98
2019-01-24T09:41:39.706Z,39.73
2019-01-24T09:42:43.254Z,27.67
2019-01-24T09:43:46.728Z,25.50
2019-01-24T09:44:50.319Z,26.52
2019-01-24T09:45:53.873Z,28.45
2019-01-24T09:46:57.420Z,26.27
2019-01-24T09:48:01.108Z,25.40
2019-01-24T09:49:04.901Z,25.15
2019-01-24T09:50:22.538Z,27.10
2019-01-24T09:51:26.142Z,29.20
2019-01-24T09:52:29.722Z,25.65
2019-01-24T09:53:33.293Z,28.70
2019-01-24T09:54:36.842Z,24.80
2019-01-24T09:55:40.361Z,25.37
2019-01-24T09:56:43.903Z,28.40
2019-01-24T09:57:47.590Z,27.27
2019-01-24T09:58:51.134Z,28.85
2019-01-24T09:59:54.606Z,25.12
2019-01-24T10:00:58.131Z,27.77
2019-01-24T10:02:01.666Z,24.43
2019-01-24T10:03:05.281Z,28.17
2019-01-24T10:04:08.825Z,27.73
2019-01-24T10:05:12.977Z,27.60
2019-01-24T10:06:16.450Z,26.73
2019-01-24T10:07:19.961Z,27.82
2019-01-24T10:08:23.545Z,28.25
2019-01-24T10:09:27.113Z,28.45
2019-01-24T10:10:30.644Z,29.25
2019-01-24T10:11:34.190Z,28.35
2019-01-24T10:12:37.738Z,28.47
2019-01-24T10:13:41.242Z,28.35
2019-01-24T10:14:44.740Z,27.73
2019-01-24T10:15:48.331Z,27.85
2019-01-24T10:16:51.802Z,28.75
2019-01-24T10:17:55.358Z,27.27
2019-01-24T10:18:58.832Z,28.45
2019-01-24T10:20:02.307Z,27.87
2019-01-24T10:21:05.894Z,27.80
2019-01-24T10:22:09.365Z,30.00
2019-01-24T10:23:12.906Z,28.07
2019-01-24T10:24:16.378Z,28.55
2019-01-24T10:25:25.538Z,28.27
2019-01-24T10:26:29.050Z,27.93
2019-01-24T10:27:32.593Z,29.50
2019-01-24T10:28:36.142Z,28.42
2019-01-24T10:29:39.690Z,30.82
2019-01-24T10:30:43.414Z,29.67
2019-01-24T10:31:46.970Z,29.25
2019-01-24T10:32:51.370Z,28.23
2019-01-24T10:33:54.955Z,26.70
2019-01-24T10:34:58.512Z,27.93
2019-01-24T10:36:02.102Z,26.10
2019-01-24T10:37:05.650Z,28.42
2019-01-24T10:38:09.123Z,27.37
2019-01-24T10:39:12.671Z,28.73
2019-01-24T10:40:19.458Z,29.12
2019-01-24T10:41:22.966Z,28.05
2019-01-24T10:42:26.443Z,27.95
2019-01-24T10:43:29.998Z,28.47
2019-01-24T10:44:33.541Z,27.55
2019-01-24T10:45:37.017Z,28.23
2019-01-24T10:46:40.608Z,26.17
2019-01-24T10:47:44.234Z,27.35
2019-01-24T10:48:47.774Z,28.10
2019-01-24T10:49:51.242Z,27.27
2019-01-24T10:50:54.718Z,25.45
2019-01-24T10:51:58.234Z,26.57
2019-01-24T10:53:01.720Z,28.77
2019-01-24T10:54:05.256Z,29.10
2019-01-24T10:55:14.811Z,29.85
2019-01-24T10:56:18.361Z,28.02
2019-01-24T10:57:21.960Z,28.10
2019-01-24T10:58:25.506Z,29.30
2019-01-24T10:59:29.058Z,27.75
2019-01-24T11:00:34.874Z,29.12
2019-01-24T11:01:38.431Z,28.83
2019-01-24T11:02:42.083Z,30.90
2019-01-24T11:03:45.630Z,28.95
2019-01-24T11:04:49.106Z,27.55
2019-01-24T11:05:52.653Z,28.92
2019-01-24T11:06:56.198Z,27.52
2019-01-24T11:07:59.710Z,28.70
2019-01-24T11:09:04.594Z,30.20
2019-01-24T11:10:10.295Z,29.72
2019-01-24T11:11:13.834Z,29.15
2019-01-24T11:12:17.422Z,29.30
2019-01-24T11:13:21.065Z,26.90
2019-01-24T11:14:24.570Z,28.55
2019-01-24T11:15:28.082Z,29.67
2019-01-24T11:16:31.553Z,28.07
2019-01-24T11:17:35.344Z,28.65
2019-01-24T11:18:38.922Z,28.10
2019-01-24T11:19:42.395Z,28.65
2019-01-24T11:20:45.937Z,27.95
2019-01-24T11:21:49.418Z,26.07
2019-01-24T11:22:53.033Z,28.55
2019-01-24T11:23:56.543Z,29.07
2019-01-24T11:25:00.209Z,28.67
2019-01-24T11:26:03.802Z,26.42
2019-01-24T11:27:07.274Z,29.15
2019-01-24T11:28:10.858Z,27.95
2019-01-24T11:29:14.371Z,29.63
2019-01-24T11:30:26.041Z,28.17
2019-01-24T11:31:29.693Z,27.50
2019-01-24T11:32:33.241Z,27.27
2019-01-24T11:33:36.794Z,27.05
2019-01-24T11:34:40.338Z,26.52
2019-01-24T11:35:43.889Z,29.12
2019-01-24T11:36:47.450Z,28.70
2019-01-24T11:37:51.067Z,28.15
2019-01-24T11:38:54.611Z,28.27
2019-01-24T11:39:58.164Z,28.00
2019-01-24T11:41:01.708Z,27.75
2019-01-24T11:42:05.358Z,30.08
2019-01-24T11:43:08.833Z,27.48
2019-01-24T11:44:12.311Z,36.65
2019-01-24T11:45:18.390Z,31.12
2019-01-24T11:46:21.863Z,30.70
2019-01-24T11:47:25.444Z,27.13
2019-01-24T11:48:29.023Z,27.85
2019-01-24T11:49:32.566Z,27.30
2019-01-24T11:50:36.147Z,32.15
2019-01-24T11:51:39.729Z,39.25
2019-01-24T11:52:43.330Z,34.27
2019-01-24T11:53:52.910Z,31.15
2019-01-24T11:54:52.047Z,27.32
2019-01-24T11:55:55.666Z,28.75
2019-01-24T11:56:59.214Z,27.05
2019-01-24T11:58:03.222Z,26.85
2019-01-24T11:59:07.503Z,32.20
2019-01-24T12:00:28.047Z,35.70
2019-01-24T12:01:32.014Z,28.47
2019-01-24T12:02:39.794Z,27.98
2019-01-24T12:03:41.859Z,27.67
2019-01-24T12:04:45.852Z,34.75
2019-01-24T12:05:50.167Z,31.60
2019-01-24T12:06:54.153Z,31.10
2019-01-24T12:07:58.168Z,31.73
2019-01-24T12:09:02.371Z,41.98
2019-01-24T12:10:11.852Z,53.92
2019-01-24T12:11:15.864Z,39.18
2019-01-24T12:12:19.980Z,60.43
2019-01-24T12:13:24.183Z,36.77
2019-01-24T12:14:28.198Z,30.77
2019-01-24T12:15:32.700Z,47.78
2019-01-24T12:16:36.786Z,69.58
2019-01-24T12:17:40.902Z,35.55
2019-01-24T12:18:44.822Z,31.77
2019-01-24T12:19:48.926Z,39.70
2019-01-24T12:20:52.912Z,30.02
2019-01-24T12:21:57.221Z,27.25
2019-01-24T12:23:01.445Z,28.83
2019-01-24T12:24:07.562Z,33.30
2019-01-24T12:25:18.249Z,44.40
2019-01-24T12:26:22.151Z,42.90
2019-01-24T12:27:26.661Z,34.58
2019-01-24T12:28:31.878Z,32.48
2019-01-24T12:29:36.333Z,39.45
2019-01-24T12:30:43.441Z,30.30
2019-01-24T12:31:49.001Z,30.75
2019-01-24T12:32:54.923Z,29.20
2019-01-24T12:35:29.678Z,29.48
2019-01-24T12:36:33.781Z,31.70
2019-01-24T12:37:42.327Z,26.60
2019-01-24T12:38:59.805Z,27.82
2019-01-24T12:40:09.229Z,33.80
2019-01-24T12:41:25.239Z,31.15
2019-01-24T12:44:31.241Z,27.90
2019-01-24T12:45:40.606Z,26.65
2019-01-24T12:47:00.773Z,28.47
2019-01-24T12:48:06.517Z,29.75
2019-01-24T12:49:10.513Z,32.85
2019-01-24T12:50:19.160Z,32.50
2019-01-24T12:51:23.423Z,30.70
2019-01-24T12:52:27.728Z,28.45
2019-01-24T12:53:33.889Z,28.67
2019-01-24T12:54:37.869Z,27.82
2019-01-24T12:55:41.969Z,27.87
2019-01-24T12:56:46.072Z,27.10
2019-01-24T12:57:50.593Z,27.15
2019-01-24T12:58:54.598Z,27.13
2019-01-24T12:59:59.826Z,28.47
2019-01-24T13:01:04.131Z,29.10
2019-01-24T13:02:08.095Z,29.18
2019-01-24T13:03:12.133Z,28.40
2019-01-24T13:04:16.132Z,31.48
2019-01-24T13:05:20.231Z,29.32
2019-01-24T13:06:24.310Z,30.08
2019-01-24T13:07:28.334Z,29.10
2019-01-24T13:08:32.481Z,31.40
2019-01-24T13:09:36.437Z,30.90
2019-01-24T13:10:40.437Z,29.37
2019-01-24T13:11:43.965Z,28.47
2019-01-24T13:12:48.179Z,29.52
2019-01-24T13:13:51.649Z,31.17
2019-01-24T13:14:55.130Z,30.35
2019-01-24T13:15:58.718Z,29.77
2019-01-24T13:17:02.327Z,29.82
2019-01-24T13:18:06.319Z,31.73
2019-01-24T13:19:09.897Z,35.35
2019-01-24T13:20:15.749Z,30.20
2019-01-24T13:21:19.250Z,28.02
2019-01-24T13:22:22.733Z,29.50
2019-01-24T13:23:26.317Z,29.95
2019-01-24T13:24:29.868Z,33.88
2019-01-24T13:25:34.094Z,31.95
2019-01-24T13:26:37.645Z,31.12
2019-01-24T13:27:41.165Z,29.95
2019-01-24T13:28:44.705Z,31.15
2019-01-24T13:29:48.219Z,31.85
2019-01-24T13:30:51.689Z,29.45
2019-01-24T13:31:55.158Z,30.68
2019-01-24T13:32:58.902Z,29.25
2019-01-24T13:34:02.498Z,27.77
2019-01-24T13:35:06.387Z,29.60
2019-01-24T13:36:10.007Z,30.75
2019-01-24T13:37:13.559Z,30.82
2019-01-24T13:38:17.116Z,28.27
2019-01-24T13:39:20.695Z,30.32
2019-01-24T13:40:26.491Z,29.67
2019-01-24T13:41:30.035Z,29.50
2019-01-24T13:42:33.517Z,27.73
2019-01-24T13:43:37.066Z,29.50
2019-01-24T13:44:40.666Z,27.85
2019-01-24T13:45:44.142Z,29.23
2019-01-24T13:46:47.622Z,28.10